createdAt,value
2018-09-07T00:00:39.686Z,99.99
2018-09-07T00:01:39.498Z,99.99
2018-09-07T00:02:39.564Z,99.99
2018-09-07T00:03:39.599Z,99.99
2018-09-07T00:04:39.664Z,99.99
2018-09-07T00:05:39.622Z,99.99
2018-09-07T00:06:40.130Z,99.99
2018-09-07T00:07:40.684Z,99.99
2018-09-07T00:08:40.939Z,99.99
2018-09-07T00:09:40.601Z,99.99
2018-09-07T00:10:40.425Z,99.99
2018-09-07T00:11:41.323Z,99.99
2018-09-07T00:12:40.472Z,99.99
2018-09-07T00:13:41.187Z,99.99
2018-09-07T00:14:40.796Z,99.99
2018-09-07T00:15:41.028Z,99.99
2018-09-07T00:16:40.932Z,99.99
2018-09-07T00:17:40.593Z,99.99
2018-09-07T00:18:40.650Z,99.99
2018-09-07T00:19:41.205Z,99.99
2018-09-07T00:21:40.847Z,99.99
2018-09-07T00:22:42.734Z,99.99
2018-09-07T00:23:40.846Z,99.99
2018-09-07T00:24:41.021Z,99.99
2018-09-07T00:25:40.537Z,99.99
2018-09-07T00:26:42.074Z,99.99
2018-09-07T00:27:41.112Z,99.99
2018-09-07T00:28:41.377Z,99.99
2018-09-07T00:29:41.099Z,99.99
2018-09-07T00:30:41.234Z,99.99
2018-09-07T00:31:41.483Z,99.99
2018-09-07T00:32:41.317Z,99.99
2018-09-07T00:33:41.981Z,99.99
2018-09-07T00:34:43.266Z,99.99
2018-09-07T00:35:41.509Z,99.99
2018-09-07T00:36:41.871Z,99.99
2018-09-07T00:38:41.718Z,99.99
2018-09-07T00:39:43.499Z,99.99
2018-09-07T00:40:42.589Z,99.99
2018-09-07T00:41:41.691Z,99.99
2018-09-07T00:42:42.059Z,99.99
2018-09-07T00:43:41.995Z,99.99
2018-09-07T00:44:42.457Z,99.99
2018-09-07T00:45:43.737Z,99.99
2018-09-07T00:47:41.932Z,99.99
2018-09-07T00:48:41.446Z,99.99
2018-09-07T00:49:42.126Z,99.99
2018-09-07T00:50:43.502Z,99.99
2018-09-07T00:51:42.299Z,99.99
2018-09-07T00:53:42.164Z,99.99
2018-09-07T00:55:42.183Z,99.99
2018-09-07T00:56:42.900Z,99.99
2018-09-07T00:57:44.153Z,99.99
2018-09-07T00:58:43.017Z,99.99
2018-09-07T00:59:42.729Z,99.99
2018-09-07T01:00:43.064Z,99.99
2018-09-07T01:02:42.773Z,99.99
2018-09-07T01:03:42.546Z,99.99
2018-09-07T01:04:44.734Z,99.99
2018-09-07T01:05:42.731Z,99.99
2018-09-07T01:07:42.181Z,99.99
2018-09-07T01:08:42.806Z,99.99
2018-09-07T01:09:43.388Z,99.99
2018-09-07T01:10:42.767Z,99.99
2018-09-07T01:11:44.325Z,99.99
2018-09-07T01:12:43.070Z,99.99
2018-09-07T01:13:43.387Z,99.99
2018-09-07T01:14:43.014Z,99.99
2018-09-07T01:15:43.383Z,99.99
2018-09-07T01:16:42.561Z,99.99
2018-09-07T01:17:43.555Z,99.99
2018-09-07T01:18:43.200Z,99.99
2018-09-07T01:19:43.257Z,99.99
2018-09-07T01:20:42.758Z,99.99
2018-09-07T01:21:43.543Z,99.99
2018-09-07T01:22:43.621Z,99.99
2018-09-07T01:23:43.371Z,99.99
2018-09-07T01:24:43.707Z,99.99
2018-09-07T01:25:43.460Z,99.99
2018-09-07T01:26:43.548Z,99.99
2018-09-07T01:27:44.156Z,99.99
2018-09-07T01:31:43.969Z,99.99
2018-09-07T01:32:44.233Z,99.99
2018-09-07T01:33:43.675Z,99.99
2018-09-07T01:34:43.851Z,99.99
2018-09-07T01:35:43.794Z,99.99
2018-09-07T01:36:44.554Z,99.99
2018-09-07T01:38:43.988Z,99.99
2018-09-07T01:39:44.428Z,99.99
2018-09-07T01:40:44.253Z,99.99
2018-09-07T01:41:44.094Z,99.99
2018-09-07T01:42:44.131Z,99.99
2018-09-07T01:43:44.720Z,99.99
2018-09-07T01:44:44.639Z,99.99
2018-09-07T01:45:44.274Z,99.99
2018-09-07T01:46:44.736Z,99.99
2018-09-07T01:47:43.795Z,99.99
2018-09-07T01:48:44.848Z,99.99
2018-09-07T01:49:44.414Z,99.99
2018-09-07T01:50:44.920Z,99.99
2018-09-07T01:51:46.956Z,99.99
2018-09-07T01:52:44.472Z,99.99
2018-09-07T01:53:45.191Z,99.99
2018-09-07T01:54:44.626Z,99.99
2018-09-07T01:55:44.741Z,99.99
2018-09-07T01:56:44.724Z,99.99
2018-09-07T01:57:44.741Z,99.99
2018-09-07T01:58:44.564Z,99.99
2018-09-07T01:59:44.884Z,99.99
2018-09-07T02:00:44.906Z,99.99
2018-09-07T02:01:44.815Z,99.99
2018-09-07T02:02:44.955Z,99.99
2018-09-07T02:03:44.479Z,99.99
2018-09-07T02:04:45.076Z,99.99
2018-09-07T02:05:45.484Z,99.99
2018-09-07T02:06:44.585Z,99.99
2018-09-07T02:07:45.181Z,99.99
2018-09-07T02:08:44.965Z,99.99
2018-09-07T02:09:44.711Z,99.99
2018-09-07T02:10:44.753Z,99.99
2018-09-07T02:11:44.783Z,99.99
2018-09-07T02:12:44.842Z,99.99
2018-09-07T02:13:44.862Z,99.99
2018-09-07T02:14:45.278Z,99.99
2018-09-07T02:15:44.989Z,99.99
2018-09-07T02:16:45.008Z,99.99
2018-09-07T02:17:45.036Z,99.99
2018-09-07T02:18:45.086Z,99.99
2018-09-07T02:19:45.409Z,99.99
2018-09-07T02:20:45.170Z,99.99
2018-09-07T02:21:45.207Z,99.99
2018-09-07T02:22:45.255Z,99.99
2018-09-07T02:23:45.299Z,99.99
2018-09-07T02:24:45.331Z,99.99
2018-09-07T02:25:45.601Z,99.99
2018-09-07T02:26:45.413Z,99.99
2018-09-07T02:27:45.444Z,99.99
2018-09-07T02:28:45.509Z,99.99
2018-09-07T02:29:45.533Z,99.99
2018-09-07T02:30:45.578Z,99.99
2018-09-07T02:31:45.661Z,99.99
2018-09-07T02:32:45.654Z,99.99
2018-09-07T02:33:45.704Z,99.99
2018-09-07T02:34:45.740Z,99.99
2018-09-07T02:35:45.789Z,99.99
2018-09-07T02:36:45.809Z,99.99
2018-09-07T02:37:45.876Z,99.99
2018-09-07T02:38:45.911Z,99.99
2018-09-07T02:39:45.965Z,99.99
2018-09-07T02:40:45.995Z,99.99
2018-09-07T02:41:46.041Z,99.99
2018-09-07T02:42:46.057Z,99.99
2018-09-07T02:43:46.122Z,99.99
2018-09-07T02:44:46.157Z,99.99
2018-09-07T02:45:46.227Z,99.99
2018-09-07T02:46:46.236Z,99.99
2018-09-07T02:47:46.576Z,99.99
2018-09-07T02:48:46.323Z,99.99
2018-09-07T02:49:46.349Z,99.99
2018-09-07T02:50:46.402Z,99.99
2018-09-07T02:51:46.423Z,99.99
2018-09-07T02:52:46.490Z,99.99
2018-09-07T02:53:46.822Z,99.99
2018-09-07T02:54:46.850Z,99.99
2018-09-07T02:55:46.613Z,99.99
2018-09-07T02:56:46.650Z,99.99
2018-09-07T02:57:46.687Z,99.99
2018-09-07T02:58:46.733Z,99.99
2018-09-07T02:59:47.013Z,99.99
2018-09-07T03:00:46.810Z,99.99
2018-09-07T03:01:46.848Z,99.99
2018-09-07T03:02:46.896Z,99.99
2018-09-07T03:03:46.934Z,99.99
2018-09-07T03:04:46.967Z,99.99
2018-09-07T03:05:46.993Z,99.99
2018-09-07T03:06:47.308Z,99.99
2018-09-07T03:07:47.085Z,99.99
2018-09-07T03:08:47.149Z,99.99
2018-09-07T03:09:47.142Z,99.99
2018-09-07T03:10:47.236Z,99.99
2018-09-07T03:11:47.271Z,99.99
2018-09-07T03:12:47.579Z,99.99
2018-09-07T03:13:47.341Z,99.99
2018-09-07T03:14:47.421Z,99.99
2018-09-07T03:15:47.436Z,99.99
2018-09-07T03:16:47.460Z,99.99
2018-09-07T03:17:47.485Z,99.99
2018-09-07T03:18:47.792Z,99.99
2018-09-07T03:19:47.625Z,99.99
2018-09-07T03:20:47.638Z,99.99
2018-09-07T03:21:47.656Z,99.99
2018-09-07T03:22:47.692Z,99.99
2018-09-07T03:23:47.728Z,99.99
2018-09-07T03:24:47.813Z,99.99
2018-09-07T03:25:47.810Z,99.99
2018-09-07T03:26:47.840Z,99.99
2018-09-07T03:27:47.945Z,99.99
2018-09-07T03:28:47.961Z,99.99
2018-09-07T03:29:48.384Z,99.99
2018-09-07T03:30:48.027Z,99.99
2018-09-07T03:31:48.080Z,99.99
2018-09-07T03:32:48.107Z,99.99
2018-09-07T03:33:48.154Z,99.99
2018-09-07T03:34:48.198Z,99.99
2018-09-07T03:35:48.235Z,99.99
2018-09-07T03:36:48.270Z,99.99
2018-09-07T03:37:48.309Z,99.99
2018-09-07T03:38:48.336Z,99.99
2018-09-07T03:39:48.366Z,99.99
2018-09-07T03:40:48.669Z,99.99
2018-09-07T03:41:48.475Z,99.99
2018-09-07T03:42:48.497Z,99.99
2018-09-07T03:43:48.543Z,99.99
2018-09-07T03:44:48.614Z,99.99
2018-09-07T03:45:48.629Z,99.99
2018-09-07T03:46:48.674Z,99.99
2018-09-07T03:47:48.703Z,99.99
2018-09-07T03:48:48.746Z,99.99
2018-09-07T03:49:48.795Z,99.99
2018-09-07T03:50:48.895Z,99.99
2018-09-07T03:51:49.102Z,99.99
2018-09-07T03:52:48.930Z,99.99
2018-09-07T03:53:48.950Z,99.99
2018-09-07T03:54:48.999Z,99.99
2018-09-07T03:55:49.063Z,99.99
2018-09-07T03:56:49.067Z,99.99
2018-09-07T03:57:49.137Z,99.99
2018-09-07T03:58:49.151Z,99.99
2018-09-07T03:59:49.230Z,99.99
2018-09-07T04:00:49.229Z,99.99
2018-09-07T04:01:49.266Z,99.99
2018-09-07T04:02:49.546Z,99.99
2018-09-07T04:03:49.373Z,99.99
2018-09-07T04:04:49.397Z,99.99
2018-09-07T04:05:49.487Z,99.99
2018-09-07T04:06:49.465Z,99.99
2018-09-07T04:07:49.513Z,99.99
2018-09-07T04:08:49.597Z,99.99
2018-09-07T04:09:49.621Z,99.99
2018-09-07T04:10:49.673Z,99.99
2018-09-07T04:11:49.664Z,99.99
2018-09-07T04:12:49.730Z,99.99
2018-09-07T04:13:49.757Z,99.99
2018-09-07T04:14:49.776Z,99.99
2018-09-07T04:15:50.113Z,99.99
2018-09-07T04:16:49.857Z,99.99
2018-09-07T04:17:49.909Z,99.99
2018-09-07T04:18:49.971Z,99.99
2018-09-07T04:19:50.013Z,99.99
2018-09-07T04:20:50.345Z,99.99
2018-09-07T04:21:50.094Z,99.99
2018-09-07T04:22:50.138Z,99.99
2018-09-07T04:23:50.170Z,99.99
2018-09-07T04:24:50.202Z,99.99
2018-09-07T04:25:50.278Z,99.99
2018-09-07T04:26:50.257Z,99.99
2018-09-07T04:27:50.364Z,99.99
2018-09-07T04:28:50.357Z,99.99
2018-09-07T04:29:50.419Z,99.99
2018-09-07T04:30:50.738Z,99.99
2018-09-07T04:31:50.461Z,99.99
2018-09-07T04:32:50.555Z,99.99
2018-09-07T04:33:50.573Z,99.99
2018-09-07T04:34:50.589Z,99.99
2018-09-07T04:35:50.676Z,99.99
2018-09-07T04:36:50.975Z,99.99
2018-09-07T04:37:50.738Z,99.99
2018-09-07T04:38:50.779Z,99.99
2018-09-07T04:39:50.858Z,99.99
2018-09-07T04:40:50.826Z,99.99
2018-09-07T04:41:50.875Z,99.99
2018-09-07T04:42:50.923Z,99.99
2018-09-07T04:43:50.962Z,99.99
2018-09-07T04:44:51.019Z,99.99
2018-09-07T04:45:51.036Z,99.99
2018-09-07T04:46:51.094Z,99.99
2018-09-07T04:47:51.367Z,99.99
2018-09-07T04:48:51.154Z,99.99
2018-09-07T04:49:51.234Z,99.99
2018-09-07T04:50:51.280Z,99.99
2018-09-07T04:51:51.289Z,99.99
2018-09-07T04:52:51.342Z,99.99
2018-09-07T04:53:51.346Z,99.99
2018-09-07T04:54:51.391Z,99.99
2018-09-07T04:55:51.463Z,99.99
2018-09-07T04:56:51.484Z,99.99
2018-09-07T04:57:51.846Z,99.99
2018-09-07T04:58:51.566Z,99.99
2018-09-07T04:59:51.622Z,99.99
2018-09-07T05:00:51.652Z,99.99
2018-09-07T05:01:51.679Z,99.99
2018-09-07T05:58:54.297Z,99.99
2018-09-07T05:59:54.062Z,99.99
2018-09-07T06:00:54.062Z,99.99
2018-09-07T06:01:54.102Z,99.99
2018-09-07T06:02:54.141Z,99.99
2018-09-07T06:03:54.232Z,99.99
2018-09-07T06:04:54.259Z,99.99
2018-09-07T06:05:54.270Z,99.99
2018-09-07T06:06:54.349Z,99.99
2018-09-07T06:07:54.360Z,99.99
2018-09-07T06:08:54.654Z,99.99
2018-09-07T06:09:54.473Z,99.99
2018-09-07T06:10:54.477Z,99.99
2018-09-07T06:11:54.492Z,99.99
2018-09-07T06:12:54.553Z,99.99
2018-09-07T06:13:54.648Z,99.99
2018-09-07T06:14:54.882Z,99.99
2018-09-07T06:15:54.746Z,99.99
2018-09-07T06:16:54.731Z,99.99
2018-09-07T06:17:54.732Z,99.99
2018-09-07T06:18:54.814Z,99.99
2018-09-07T06:19:54.832Z,99.99
2018-09-07T06:20:55.179Z,99.99
2018-09-07T06:21:54.920Z,99.99
2018-09-07T06:22:54.990Z,99.99
2018-09-07T06:23:54.981Z,99.99
2018-09-07T06:24:55.033Z,99.99
2018-09-07T06:25:55.062Z,99.99
2018-09-07T06:26:55.105Z,99.99
2018-09-07T06:27:55.505Z,99.99
2018-09-07T06:28:55.282Z,99.99
2018-09-07T06:29:55.243Z,99.99
2018-09-07T06:30:55.283Z,99.99
2018-09-07T06:31:55.330Z,99.99
2018-09-07T06:32:55.679Z,99.99
2018-09-07T06:33:55.427Z,99.99
2018-09-07T06:34:55.428Z,99.99
2018-09-07T06:35:55.476Z,99.99
2018-09-07T06:36:55.621Z,99.99
2018-09-07T06:37:55.598Z,99.99
2018-09-07T06:38:55.715Z,99.99
2018-09-07T06:39:55.666Z,99.99
2018-09-07T06:40:55.697Z,99.99
2018-09-07T06:41:55.716Z,99.99
2018-09-07T06:42:55.769Z,99.99
2018-09-07T06:43:56.077Z,99.99
2018-09-07T06:44:55.880Z,99.99
2018-09-07T06:45:55.887Z,99.99
2018-09-07T06:46:55.928Z,99.99
2018-09-07T06:47:55.975Z,99.99
2018-09-07T06:48:56.258Z,99.99
2018-09-07T06:49:56.048Z,99.99
2018-09-07T06:50:56.129Z,99.99
2018-09-07T06:51:56.112Z,99.99
2018-09-07T06:52:56.165Z,99.99
2018-09-07T06:53:56.335Z,99.99
2018-09-07T06:54:56.289Z,99.99
2018-09-07T06:55:56.303Z,99.99
2018-09-07T06:56:56.339Z,99.99
2018-09-07T06:57:56.378Z,99.99
2018-09-07T06:58:56.720Z,99.99
2018-09-07T06:59:56.519Z,99.99
2018-09-07T07:00:56.470Z,99.99
2018-09-07T07:01:56.565Z,99.99
2018-09-07T07:02:56.607Z,99.99
2018-09-07T07:03:56.651Z,99.99
2018-09-07T07:04:56.993Z,99.99
2018-09-07T07:05:56.688Z,99.99
2018-09-07T07:06:56.721Z,99.99
2018-09-07T07:07:56.755Z,99.99
2018-09-07T07:08:56.797Z,99.99
2018-09-07T07:09:56.845Z,99.99
2018-09-07T07:10:57.204Z,99.99
2018-09-07T07:11:56.928Z,99.99
2018-09-07T07:12:56.977Z,99.99
2018-09-07T07:13:56.990Z,99.99
2018-09-07T07:14:57.046Z,99.99
2018-09-07T07:15:57.141Z,99.99
2018-09-07T07:16:57.439Z,99.99
2018-09-07T07:17:57.171Z,99.99
2018-09-07T07:18:57.223Z,99.99
2018-09-07T07:19:57.260Z,99.99
2018-09-07T07:20:57.305Z,99.99
2018-09-07T07:21:57.353Z,99.99
2018-09-07T07:22:57.380Z,99.99
2018-09-07T07:23:57.440Z,99.99
2018-09-07T07:24:57.455Z,99.99
2018-09-07T07:25:57.491Z,99.99
2018-09-07T07:26:57.828Z,99.99
2018-09-07T07:27:57.897Z,99.99
2018-09-07T07:28:57.654Z,99.99
2018-09-07T07:29:57.675Z,99.99
2018-09-07T07:30:57.686Z,99.99
2018-09-07T07:31:57.736Z,99.99
2018-09-07T07:32:57.780Z,99.99
2018-09-07T07:33:57.817Z,99.99
2018-09-07T07:34:57.863Z,99.99
2018-09-07T07:35:57.895Z,99.99
2018-09-07T07:36:57.940Z,99.99
2018-09-07T07:37:58.297Z,99.99
2018-09-07T07:38:58.356Z,99.99
2018-09-07T07:39:58.077Z,99.99
2018-09-07T07:40:58.099Z,99.99
2018-09-07T07:41:58.128Z,99.99
2018-09-07T07:42:58.167Z,99.99
2018-09-07T07:43:58.281Z,99.99
2018-09-07T07:44:58.267Z,99.99
2018-09-07T07:45:58.305Z,99.99
2018-09-07T07:46:58.330Z,99.99
2018-09-07T07:47:58.538Z,99.99
2018-09-07T07:48:58.425Z,99.99
2018-09-07T07:49:58.693Z,99.99
2018-09-07T07:50:58.503Z,99.99
2018-09-07T07:51:58.585Z,99.99
2018-09-07T07:52:58.585Z,99.99
2018-09-07T07:53:58.627Z,99.99
2018-09-07T07:54:58.658Z,99.99
2018-09-07T07:55:58.698Z,99.99
2018-09-07T07:56:59.111Z,99.99
2018-09-07T07:57:58.791Z,99.99
2018-09-07T07:58:58.826Z,99.99
2018-09-07T07:59:58.867Z,99.99
2018-09-07T08:00:58.910Z,99.99
2018-09-07T08:01:58.960Z,99.99
2018-09-07T08:02:59.271Z,99.99
2018-09-07T08:03:59.012Z,99.99
2018-09-07T08:04:59.054Z,99.99
2018-09-07T08:05:59.111Z,99.99
2018-09-07T08:06:59.139Z,99.99
2018-09-07T08:07:59.189Z,99.99
2018-09-07T08:08:59.226Z,99.99
2018-09-07T08:09:59.271Z,99.99
2018-09-07T08:10:59.303Z,99.99
2018-09-07T08:11:59.359Z,99.99
2018-09-07T08:12:59.374Z,99.99
2018-09-07T08:13:59.751Z,99.99
2018-09-07T08:14:59.776Z,99.99
2018-09-07T08:15:59.576Z,99.99
2018-09-07T08:16:59.539Z,99.99
2018-09-07T08:17:59.634Z,99.99
2018-09-07T08:18:59.636Z,99.99
2018-09-07T08:19:59.669Z,99.99
2018-09-07T08:20:59.697Z,99.99
2018-09-07T08:21:59.736Z,99.99
2018-09-07T08:22:59.836Z,99.99
2018-09-07T08:23:59.836Z,99.99
2018-09-07T08:24:59.862Z,99.99
2018-09-07T08:26:00.163Z,99.99
2018-09-07T08:26:59.973Z,99.99
2018-09-07T08:28:00.017Z,99.99
2018-09-07T08:29:00.036Z,99.99
2018-09-07T08:30:00.086Z,99.99
2018-09-07T08:31:00.157Z,99.99
2018-09-07T08:32:00.396Z,99.99
2018-09-07T08:33:00.318Z,99.99
2018-09-07T08:34:00.230Z,99.99
2018-09-07T08:35:00.264Z,99.99
2018-09-07T08:36:00.324Z,99.99
2018-09-07T08:37:00.347Z,99.99
2018-09-07T08:38:00.406Z,99.99
2018-09-07T08:39:00.419Z,99.99
2018-09-07T08:40:00.469Z,99.99
2018-09-07T08:41:00.517Z,99.99
2018-09-07T08:42:00.561Z,99.99
2018-09-07T08:43:00.913Z,99.99
2018-09-07T08:44:00.933Z,99.99
2018-09-07T08:45:00.664Z,99.99
2018-09-07T08:46:00.722Z,99.99
2018-09-07T08:47:00.750Z,99.99
2018-09-07T08:48:00.829Z,99.99
2018-09-07T08:49:00.848Z,99.99
2018-09-07T08:50:01.183Z,99.99
2018-09-07T08:51:00.919Z,99.99
2018-09-07T08:52:00.978Z,99.99
2018-09-07T08:53:01.055Z,99.99
2018-09-07T08:54:01.027Z,99.99
2018-09-07T08:55:01.338Z,99.99
2018-09-07T08:56:01.127Z,99.99
2018-09-07T08:57:01.166Z,99.99
2018-09-07T08:58:01.190Z,99.99
2018-09-07T08:59:01.230Z,99.99
2018-09-07T09:00:01.270Z,99.99
2018-09-07T09:01:01.609Z,99.99
2018-09-07T09:02:01.345Z,99.99
2018-09-07T09:03:01.413Z,99.99
2018-09-07T09:04:01.441Z,99.99
2018-09-07T09:05:01.506Z,99.99
2018-09-07T09:06:01.516Z,99.99
2018-09-07T09:07:01.855Z,99.99
2018-09-07T09:08:01.618Z,99.99
2018-09-07T09:09:01.644Z,99.99
2018-09-07T09:10:01.680Z,99.99
2018-09-07T09:11:01.730Z,99.99
2018-09-07T09:12:01.822Z,99.99
2018-09-07T09:13:01.833Z,99.99
2018-09-07T09:14:01.844Z,99.99
2018-09-07T09:15:01.890Z,99.99
2018-09-07T09:16:02.007Z,99.99
2018-09-07T09:17:02.288Z,99.99
2018-09-07T09:18:02.017Z,99.99
2018-09-07T09:19:02.049Z,99.99
2018-09-07T09:20:02.074Z,99.99
2018-09-07T09:21:02.125Z,99.99
2018-09-07T09:22:02.181Z,99.99
2018-09-07T09:23:02.436Z,99.99
2018-09-07T09:24:02.259Z,99.99
2018-09-07T09:25:02.298Z,99.99
2018-09-07T09:26:02.332Z,99.99
2018-09-07T09:27:02.377Z,99.99
2018-09-07T09:28:02.716Z,99.99
2018-09-07T09:29:02.451Z,99.99
2018-09-07T09:30:02.536Z,99.99
2018-09-07T09:31:02.555Z,99.99
2018-09-07T09:32:02.571Z,99.99
2018-09-07T09:33:02.598Z,99.99
2018-09-07T09:34:02.916Z,99.99
2018-09-07T09:35:02.680Z,99.99
2018-09-07T09:36:02.715Z,99.99
2018-09-07T09:37:02.764Z,99.99
2018-09-07T09:38:02.813Z,99.99
2018-09-07T09:39:02.838Z,99.99
2018-09-07T09:40:03.154Z,99.99
2018-09-07T09:41:02.931Z,99.99
2018-09-07T09:42:02.978Z,99.99
2018-09-07T09:43:03.035Z,99.99
2018-09-07T09:44:03.048Z,99.99
2018-09-07T09:45:03.117Z,99.99
2018-09-07T09:46:03.361Z,99.99
2018-09-07T09:47:03.172Z,99.99
2018-09-07T09:48:03.223Z,99.99
2018-09-07T09:49:03.263Z,99.99
2018-09-07T09:50:03.340Z,99.99
2018-09-07T09:51:03.365Z,99.99
2018-09-07T09:52:03.636Z,99.99
2018-09-07T09:53:03.506Z,99.99
2018-09-07T09:54:03.459Z,99.99
2018-09-07T09:55:03.499Z,99.99
2018-09-07T09:56:03.538Z,99.99
2018-09-07T09:57:03.616Z,99.99
2018-09-07T09:58:03.642Z,99.99
2018-09-07T09:59:03.667Z,99.99
2018-09-07T10:00:03.709Z,99.99
2018-09-07T10:01:03.781Z,99.99
2018-09-07T10:02:04.094Z,99.99
2018-09-07T10:03:04.112Z,99.99
2018-09-07T10:04:03.896Z,99.99
2018-09-07T10:05:03.954Z,99.99
2018-09-07T10:06:03.961Z,99.99
2018-09-07T10:07:04.013Z,99.99
2018-09-07T10:08:04.027Z,99.99
2018-09-07T10:09:04.073Z,99.99
2018-09-07T10:10:04.139Z,99.99
2018-09-07T10:11:04.144Z,99.99
2018-09-07T10:12:04.196Z,99.99
2018-09-07T10:13:04.544Z,99.99
2018-09-07T10:14:04.265Z,99.99
2018-09-07T10:15:04.310Z,99.99
2018-09-07T10:16:04.354Z,99.99
2018-09-07T10:17:04.462Z,99.99
2018-09-07T10:18:04.484Z,99.99
2018-09-07T10:19:04.572Z,99.99
2018-09-07T10:20:04.849Z,99.99
2018-09-07T10:21:04.586Z,99.99
2018-09-07T10:22:04.612Z,99.99
2018-09-07T10:23:04.665Z,99.99
2018-09-07T10:24:04.718Z,99.99
2018-09-07T10:25:05.002Z,99.99
2018-09-07T10:26:04.791Z,99.99
2018-09-07T10:27:04.839Z,99.99
2018-09-07T10:28:04.882Z,99.99
2018-09-07T10:29:04.913Z,99.99
2018-09-07T10:30:04.945Z,99.99
2018-09-07T10:31:05.224Z,99.99
2018-09-07T10:32:05.040Z,99.99
2018-09-07T10:33:05.073Z,99.99
2018-09-07T10:34:05.136Z,99.99
2018-09-07T10:35:05.151Z,99.99
2018-09-07T10:36:05.234Z,99.99
2018-09-07T10:37:05.538Z,99.99
2018-09-07T10:38:05.287Z,99.99
2018-09-07T10:39:05.361Z,99.99
2018-09-07T10:40:05.363Z,99.99
2018-09-07T10:41:05.415Z,99.99
2018-09-07T10:42:05.517Z,99.99
2018-09-07T10:43:05.482Z,99.99
2018-09-07T10:44:05.579Z,99.99
2018-09-07T10:45:05.568Z,99.99
2018-09-07T10:46:05.642Z,99.99
2018-09-07T10:47:05.676Z,99.99
2018-09-07T10:48:05.758Z,99.99
2018-09-07T10:49:06.067Z,99.99
2018-09-07T10:50:05.805Z,99.99
2018-09-07T10:51:05.825Z,99.99
2018-09-07T10:52:05.873Z,99.99
2018-09-07T10:53:05.950Z,99.99
2018-09-07T10:54:06.005Z,99.99
2018-09-07T10:55:06.047Z,99.99
2018-09-07T10:56:06.055Z,99.99
2018-09-07T10:57:06.100Z,99.99
2018-09-07T10:58:06.152Z,99.99
2018-09-07T10:59:06.190Z,99.99
2018-09-07T11:00:06.246Z,99.99
2018-09-07T11:01:06.294Z,99.99
2018-09-07T11:02:06.323Z,99.99
2018-09-07T11:03:06.373Z,99.99
2018-09-07T11:04:06.402Z,99.99
2018-09-07T11:05:06.465Z,99.99
2018-09-07T11:06:06.773Z,99.99
2018-09-07T11:07:06.562Z,99.99
2018-09-07T11:08:06.602Z,99.99
2018-09-07T11:09:06.659Z,98.82
2018-09-07T11:10:06.730Z,97.09
2018-09-07T11:11:06.730Z,96.61
2018-09-07T11:12:06.778Z,96.75
2018-09-07T11:13:07.083Z,95.64
2018-09-07T11:14:06.875Z,94.73
2018-09-07T11:15:06.914Z,94.92
2018-09-07T11:16:06.969Z,94.39
2018-09-07T11:17:07.017Z,94.10
2018-09-07T11:18:07.068Z,93.62
2018-09-07T11:19:07.118Z,93.00
2018-09-07T11:20:07.164Z,93.91
2018-09-07T11:21:07.195Z,93.15
2018-09-07T11:22:07.248Z,95.26
2018-09-07T11:23:07.565Z,94.54
2018-09-07T11:24:07.390Z,94.29
2018-09-07T11:25:07.407Z,91.45
2018-09-07T11:26:07.437Z,91.30
2018-09-07T11:27:07.505Z,90.09
2018-09-07T11:28:07.552Z,88.40
2018-09-07T11:29:07.615Z,87.81
2018-09-07T11:30:07.652Z,85.35
2018-09-07T11:31:07.681Z,83.99
2018-09-07T11:32:07.754Z,83.41
2018-09-07T11:33:07.782Z,83.11
2018-09-07T11:34:08.081Z,81.25
2018-09-07T11:35:07.921Z,78.64
2018-09-07T11:36:07.958Z,78.38
2018-09-07T11:37:08.006Z,76.41
2018-09-07T11:38:08.054Z,78.41
2018-09-07T11:39:08.093Z,79.24
2018-09-07T11:40:08.151Z,80.16
2018-09-07T11:41:08.211Z,82.21
2018-09-07T11:42:08.257Z,82.54
2018-09-07T11:43:08.304Z,81.23
2018-09-07T11:44:08.592Z,80.24
2018-09-07T11:45:08.395Z,78.46
2018-09-07T11:46:08.434Z,78.33
2018-09-07T11:47:08.511Z,80.26
2018-09-07T11:48:08.567Z,80.90
2018-09-07T11:49:08.653Z,80.36
2018-09-07T11:50:08.653Z,79.10
2018-09-07T11:51:08.712Z,80.16
2018-09-07T11:52:08.757Z,81.48
2018-09-07T11:53:08.835Z,80.94
2018-09-07T11:54:08.859Z,79.95
2018-09-07T11:55:09.156Z,77.82
2018-09-07T11:56:08.980Z,77.82
2018-09-07T11:57:09.030Z,77.76
2018-09-07T11:58:09.146Z,76.89
2018-09-07T11:59:09.140Z,76.64
2018-09-07T12:00:09.167Z,75.44
2018-09-07T12:01:09.235Z,76.56
2018-09-07T12:02:09.615Z,76.99
2018-09-07T12:03:09.341Z,76.79
2018-09-07T12:04:09.515Z,76.76
2018-09-07T12:05:09.441Z,77.28
2018-09-07T12:06:09.492Z,76.79
2018-09-07T12:07:09.545Z,77.28
2018-09-07T12:08:09.875Z,76.60
2018-09-07T12:09:09.648Z,76.51
2018-09-07T12:10:09.743Z,74.90
2018-09-07T12:11:09.761Z,75.09
2018-09-07T12:12:09.844Z,75.44
2018-09-07T12:13:10.195Z,76.59
2018-09-07T12:14:10.216Z,78.33
2018-09-07T12:15:09.958Z,79.04
2018-09-07T12:16:10.004Z,78.41
2018-09-07T12:17:10.109Z,77.57
2018-09-07T12:18:10.134Z,77.06
2018-09-07T12:19:10.149Z,75.07
2018-09-07T12:20:10.481Z,72.74
2018-09-07T12:21:10.322Z,73.42
2018-09-07T12:22:10.339Z,72.93
2018-09-07T12:23:10.368Z,72.93
2018-09-07T12:24:10.420Z,73.80
2018-09-07T12:25:10.533Z,73.83
2018-09-07T12:26:10.767Z,75.13
2018-09-07T12:27:10.599Z,74.23
2018-09-07T12:28:10.705Z,72.33
2018-09-07T12:29:10.755Z,71.26
2018-09-07T12:30:10.763Z,70.84
2018-09-07T12:31:10.796Z,69.42
2018-09-07T12:32:11.168Z,69.74
2018-09-07T12:33:10.911Z,66.83
2018-09-07T12:34:11.015Z,69.06
2018-09-07T12:35:11.026Z,69.64
2018-09-07T12:36:11.081Z,69.93
2018-09-07T12:37:11.401Z,70.16
2018-09-07T12:38:11.191Z,69.77
2018-09-07T12:39:11.240Z,69.84
2018-09-07T12:40:11.286Z,70.12
2018-09-07T12:41:11.351Z,69.96
2018-09-07T12:42:11.386Z,68.77
2018-09-07T12:43:11.698Z,68.12
2018-09-07T12:44:11.511Z,66.86
2018-09-07T12:45:11.587Z,66.73
2018-09-07T12:46:11.619Z,66.79
2018-09-07T12:47:11.653Z,67.80
2018-09-07T12:48:11.747Z,68.08
2018-09-07T12:49:11.834Z,67.80
2018-09-07T12:50:12.083Z,69.48
2018-09-07T12:51:11.905Z,67.76
2018-09-07T12:52:11.943Z,68.54
2018-09-07T12:53:11.995Z,67.25
2018-09-07T12:54:12.051Z,66.21
2018-09-07T12:55:12.364Z,68.05
2018-09-07T12:56:12.215Z,68.44
2018-09-07T12:57:12.207Z,68.48
2018-09-07T12:58:12.264Z,68.22
2018-09-07T12:59:12.315Z,66.41
2018-09-07T13:00:12.436Z,66.11
2018-09-07T13:01:12.681Z,65.30
2018-09-07T13:02:12.492Z,65.98
2018-09-07T13:03:12.550Z,65.92
2018-09-07T13:04:12.609Z,67.02
2018-09-07T13:05:12.678Z,68.28
2018-09-07T13:06:12.728Z,69.90
2018-09-07T13:07:13.027Z,70.25
2018-09-07T13:08:12.931Z,71.51
2018-09-07T13:09:12.898Z,70.54
2018-09-07T13:10:12.931Z,71.32
2018-09-07T13:11:13.036Z,69.67
2018-09-07T13:12:13.032Z,71.19
2018-09-07T13:13:13.131Z,71.80
2018-09-07T13:14:13.156Z,70.25
2018-09-07T13:15:13.275Z,70.73
2018-09-07T13:16:13.281Z,71.12
2018-09-07T13:17:13.593Z,70.25
2018-09-07T13:18:13.697Z,72.00
2018-09-07T13:19:13.482Z,70.57
2018-09-07T13:20:13.535Z,70.29
2018-09-07T13:21:13.563Z,69.32
2018-09-07T13:22:13.595Z,70.15
2018-09-07T13:23:13.652Z,71.36
2018-09-07T13:24:14.029Z,70.71
2018-09-07T13:25:13.777Z,69.61
2018-09-07T13:26:13.831Z,68.87
2018-09-07T13:27:13.900Z,65.69
2018-09-07T13:28:13.944Z,66.14
2018-09-07T13:29:14.286Z,66.69
2018-09-07T13:30:14.045Z,67.28
2018-09-07T13:31:14.089Z,66.27
2018-09-07T13:32:14.174Z,68.70
2018-09-07T13:33:14.205Z,71.51
2018-09-07T13:34:14.279Z,71.78
2018-09-07T13:35:14.565Z,69.35
2018-09-07T13:36:14.392Z,69.51
2018-09-07T13:37:14.441Z,68.96
2018-09-07T13:38:14.498Z,67.28
2018-09-07T13:39:14.554Z,65.33
2018-09-07T13:40:14.617Z,65.33
2018-09-07T13:41:14.701Z,66.14
2018-09-07T13:42:15.030Z,67.11
2018-09-07T13:43:14.768Z,67.21
2018-09-07T13:44:14.831Z,66.93
2018-09-07T13:45:14.906Z,66.24
2018-09-07T13:46:14.966Z,66.02
2018-09-07T13:47:15.242Z,66.99
2018-09-07T13:48:15.067Z,67.34
2018-09-07T13:49:15.103Z,67.83
2018-09-07T13:50:15.153Z,66.86
2018-09-07T13:51:15.285Z,68.02
2018-09-07T13:52:15.281Z,68.32
2018-09-07T13:53:15.342Z,68.02
2018-09-07T13:54:15.394Z,67.38
2018-09-07T13:55:16.012Z,66.69
2018-09-07T13:56:16.045Z,66.89
2018-09-07T13:57:15.576Z,66.86
2018-09-07T13:58:16.317Z,66.50
2018-09-07T14:00:16.483Z,66.60
2018-09-07T14:01:16.484Z,67.08